Silver Cloud — C6MQ5 — position and weather

sailwx.info

Track history (hours):
 
Tides and Currents Weather Stations Pressure Air Temp Water Temp Dewpoint Dewpoint Depression Visibility Wind Speed Wind Dir Waves Ship Positions

Silver Cloud

Operator: V Ships Leisure SAM

Last reported at 2015-Mar-06 02:16 UTC. Time now 2015-Mar-07 01:43 UTC.
Position N 18°27' W 064°56'.

Length 155 m; draft 5.7 m.

Type: Passenger vessel. MMSI: 309027000.

Date/timePositionNaut miles runAvg speedWind from/ knotsBaromVisibWave heightAir tempDewpointWater temp
2015-Mar-06 02:16N 18°27' W 064°56'6 9.0
2015-Mar-06 01:33N 18°23' W 064°51'9 9.4
2015-Mar-06 00:33N 18°22' W 064°41'5 5.3
2015-Mar-05 23:32N 18°25' W 064°36'0 0.0
2015-Mar-05 11:22N 18°25' W 064°36'6 7.3
2015-Mar-05 10:33N 18°24' W 064°30'1312.8
2015-Mar-05 09:33N 18°19' W 064°18'150 6.4
2015-Mar-04 10:05N 17°03' W 062°02'815.5
2015-Mar-04 09:33N 16°55' W 062°01'1515.3
2015-Mar-04 08:33N 16°40' W 061°58'1615.2
2015-Mar-04 07:31N 16°24' W 061°56'  
2015-Mar-01 09:10N 16°33' W 062°19'178 6.2
2015-Feb-28 04:33N 18°12' W 064°53'14 0.6
2015-Feb-27 02:33N 18°27' W 064°53'7 7.1
2015-Feb-27 01:33N 18°23' W 064°47'8 8.5
2015-Feb-27 00:33N 18°22' W 064°38'4 0.3
2015-Feb-26 11:06N 18°25' W 064°36'610.6
2015-Feb-26 10:34N 18°24' W 064°30'163 6.7
2015-Feb-25 10:03N 17°03' W 062°02'714.7
2015-Feb-25 09:33N 16°56' W 062°01'1514.6
2015-Feb-25 08:34N 16°41' W 061°58'1414.3
2015-Feb-25 07:33N 16°27' W 061°56'  
Track history (hours):
 
Tides and Currents Weather Stations Pressure Air Temp Water Temp Dewpoint Dewpoint Depression Visibility Wind Speed Wind Dir Waves Ship Positions

Silver Cloud

Operator: V Ships Leisure SAM

Last reported at 2015-Mar-06 02:16 UTC. Time now 2015-Mar-07 01:43 UTC.
Position N 18°27' W 064°56'.

Length 155 m; draft 5.7 m.

Type: Passenger vessel. MMSI: 309027000.

Date/timePositionNaut miles runAvg speedWind from/ knotsBaromVisibWave heightAir tempDewpointWater temp
2015-Mar-06 02:16N 18°27' W 064°56'6 9.0
2015-Mar-06 01:33N 18°23' W 064°51'9 9.4
2015-Mar-06 00:33N 18°22' W 064°41'5 5.3
2015-Mar-05 23:32N 18°25' W 064°36'0 0.0
2015-Mar-05 11:22N 18°25' W 064°36'6 7.3
2015-Mar-05 10:33N 18°24' W 064°30'1312.8
2015-Mar-05 09:33N 18°19' W 064°18'150 6.4
2015-Mar-04 10:05N 17°03' W 062°02'815.5
2015-Mar-04 09:33N 16°55' W 062°01'1515.3
2015-Mar-04 08:33N 16°40' W 061°58'1615.2
2015-Mar-04 07:31N 16°24' W 061°56'  
2015-Mar-01 09:10N 16°33' W 062°19'178 6.2
2015-Feb-28 04:33N 18°12' W 064°53'14 0.6
2015-Feb-27 02:33N 18°27' W 064°53'7 7.1
2015-Feb-27 01:33N 18°23' W 064°47'8 8.5
2015-Feb-27 00:33N 18°22' W 064°38'4 0.3
2015-Feb-26 11:06N 18°25' W 064°36'610.6
2015-Feb-26 10:34N 18°24' W 064°30'163 6.7
2015-Feb-25 10:03N 17°03' W 062°02'714.7
2015-Feb-25 09:33N 16°56' W 062°01'1514.6
2015-Feb-25 08:34N 16°41' W 061°58'1414.3
2015-Feb-25 07:33N 16°27' W 061°56'  

Dump ship's entire track history